Time;durP1;ratioP1;P1;durP2;ratioP2;P2;SDS_P1;SDS_P2;PMS_P1;PMS_P2;Temp;Humidity;BMP_temperature;BMP_pressure;BME280_temperature;BME280_humidity;BME280_pressure;Samples;Min_cycle;Max_cycle;Signal;HPM_P1;HPM_P2
2023/04/28 00:01:44;;;;;;;;;;;;;;;15.58;91.32;99816.72;5087069;28;19924;-55
2023/04/28 00:04:09;;;;;;;;;;;;;;;15.55;91.29;99812.38;5088076;28;19935;-55
2023/04/28 00:06:35;;;;;;;;;;;;;;;15.53;91.11;99814.28;5087073;28;19916;-55
2023/04/28 00:09:01;;;;;;;;;;;;;;;15.52;90.57;99820.59;5088008;28;20424;-56
2023/04/28 00:11:26;;;;;;;;;;;;;;;15.48;91.14;99808.34;5087047;28;19919;-55
2023/04/28 00:13:51;;;;;;;;;;;;;;;15.26;90.81;99778.28;5088933;28;19912;-55
2023/04/28 00:16:17;;;;;;;;;;;;;;;15.45;90.72;99816.53;5087601;28;19912;-55
2023/04/28 00:18:42;;;;;;;;;;;;;;;15.44;91.00;99813.94;5088638;28;19947;-55
2023/04/28 00:21:07;;;;;;;;;;;;;;;15.40;90.30;99818.59;5087792;28;19914;-55
2023/04/28 00:23:32;;;;;;;;;;;;;;;15.38;90.56;99814.25;5086904;28;19920;-55
2023/04/28 00:25:58;;;;;;;;;;;;;;;15.38;90.41;99814.25;5086856;28;20425;-55
2023/04/28 00:28:23;;;;;;;;;;;;;;;15.35;90.41;99809.91;5087583;28;20386;-55
2023/04/28 00:30:48;;;;;;;;;;;;;;;15.35;90.27;99804.53;5072243;28;20006;-55
2023/04/28 00:33:13;;;;;;;;;;;;;;;15.36;89.37;99794.69;5087859;28;20319;-55
2023/04/28 00:35:40;;;;;;;;;;;;;;;15.38;90.51;99799.03;5085015;28;19965;-55
2023/04/28 00:38:05;;;;;;;;;;;;;;;15.41;89.82;99800.72;5087495;28;19916;-55
2023/04/28 00:40:31;;;;;;;;;;;;;;;15.41;89.76;99793.53;5087672;28;20562;-55
2023/04/28 00:42:57;;;;;;;;;;;;;;;15.45;89.52;99800.44;5087558;28;19916;-55
2023/04/28 00:45:22;;;;;;;;;;;;;;;15.46;89.94;99791.47;5086042;28;19974;-55
2023/04/28 00:47:47;;;;;;;;;;;;;;;15.49;89.81;99793.09;5088321;28;19943;-55
2023/04/28 00:50:12;;;;;;;;;;;;;;;15.53;88.99;99787.47;5087841;28;20364;-55
2023/04/28 00:52:38;;;;;;;;;;;;;;;15.57;90.10;99777.44;5088578;28;19927;-55
2023/04/28 00:55:04;;;;;;;;;;;;;;;15.57;89.23;99766.72;5087752;28;19916;-55
2023/04/28 00:57:30;;;;;;;;;;;;;;;15.56;90.37;99765.00;5088433;28;20353;-56
2023/04/28 00:59:55;;;;;;;;;;;;;;;15.56;89.79;99776.59;5067866;28;19928;-55
2023/04/28 01:02:21;;;;;;;;;;;;;;;15.59;89.83;99778.22;5087250;28;20421;-55
2023/04/28 01:04:46;;;;;;;;;;;;;;;15.55;89.83;99774.84;5086904;28;19970;-56
2023/04/28 01:07:11;;;;;;;;;;;;;;;15.63;89.10;99767.22;5087528;28;19931;-55
2023/04/28 01:09:37;;;;;;;;;;;;;;;15.67;89.14;99766.13;5086776;28;19927;-55
2023/04/28 01:12:02;;;;;;;;;;;;;;;15.70;89.07;99773.09;5087377;28;20351;-56
2023/04/28 01:14:27;;;;;;;;;;;;;;;15.71;88.70;99773.06;5086055;28;19917;-55
2023/04/28 01:16:53;;;;;;;;;;;;;;;15.67;89.67;99774.16;5087086;28;19912;-56
2023/04/28 01:19:21;;;;;;;;;;;;;;;15.63;88.97;99767.22;5087452;28;20034;-56
2023/04/28 01:21:46;;;;;;;;;;;;;;;15.61;89.56;99770.97;5088424;28;20011;-56
2023/04/28 01:24:11;;;;;;;;;;;;;;;15.59;90.46;99771.06;5087063;28;20007;-56
2023/04/28 01:26:37;;;;;;;;;;;;;;;15.58;90.79;99777.34;5088601;28;19916;-56
2023/04/28 01:29:02;;;;;;;;;;;;;;;15.59;90.47;99781.78;5092095;28;19919;-56
2023/04/28 01:31:29;;;;;;;;;;;;;;;15.58;90.68;99784.56;5091660;28;19976;-55
2023/04/28 01:33:54;;;;;;;;;;;;;;;15.58;91.02;99789.91;5090273;28;20004;-56
2023/04/28 01:36:21;;;;;;;;;;;;;;;15.56;91.85;99797.16;5091275;28;20010;-55
2023/04/28 01:38:46;;;;;;;;;;;;;;;15.52;92.67;99796.47;5091087;28;19916;-55
2023/04/28 01:41:11;;;;;;;;;;;;;;;15.51;92.06;99799.25;5090473;28;19927;-56
2023/04/28 01:43:37;;;;;;;;;;;;;;;15.52;92.80;99796.47;5090971;28;19920;-55
2023/04/28 01:46:02;;;;;;;;;;;;;;;15.56;92.84;99800.72;5091560;28;19912;-55
2023/04/28 01:48:27;;;;;;;;;;;;;;;15.56;92.00;99792.69;5091643;28;19970;-55
2023/04/28 01:50:52;;;;;;;;;;;;;;;15.56;92.76;99798.03;5089353;28;20014;-55
2023/04/28 01:53:19;;;;;;;;;;;;;;;15.52;92.17;99793.78;5089758;28;19919;-56
2023/04/28 01:55:45;;;;;;;;;;;;;;;15.49;91.59;99799.34;5090895;28;19959;-55
2023/04/28 01:58:10;;;;;;;;;;;;;;;15.47;91.02;99798.53;5090658;28;20454;-55
2023/04/28 02:00:35;;;;;;;;;;;;;;;15.48;90.30;99792.25;5100201;28;19923;-55
2023/04/28 02:03:00;;;;;;;;;;;;;;;15.46;89.99;99796.81;5092650;28;19923;-55
2023/04/28 02:05:26;;;;;;;;;;;;;;;15.40;89.75;99805.19;5091048;28;19916;-55
2023/04/28 02:07:51;;;;;;;;;;;;;;;15.44;88.80;99803.22;5090855;28;19924;-55
2023/04/28 02:10:16;;;;;;;;;;;;;;;15.48;88.88;99804.78;5091232;28;19916;-56
2023/04/28 02:12:42;;;;;;;;;;;;;;;15.48;87.75;99811.03;5090830;28;19923;-55
2023/04/28 02:15:08;;;;;;;;;;;;;;;15.39;88.01;99816.88;5089638;28;19959;-55
2023/04/28 02:17:33;;;;;;;;;;;;;;;15.41;87.60;99817.66;5090722;28;20352;-55
2023/04/28 02:19:58;;;;;;;;;;;;;;;15.51;86.91;99826.06;5089436;28;19959;-55
2023/04/28 02:22:24;;;;;;;;;;;;;;;15.53;85.75;99822.31;5094977;28;19920;-56
2023/04/28 02:24:50;;;;;;;;;;;;;;;15.57;85.86;99826.56;5097945;28;20395;-55
2023/04/28 02:27:15;;;;;;;;;;;;;;;15.61;86.65;99836.19;5089359;28;19931;-55
2023/04/28 02:29:41;;;;;;;;;;;;;;;15.66;86.79;99835.94;5090538;28;19914;-56
2023/04/28 02:32:06;;;;;;;;;;;;;;;15.63;86.64;99834.25;5089711;28;19929;-55
2023/04/28 02:34:32;;;;;;;;;;;;;;;15.67;86.67;99827.78;5088970;28;19990;-56
2023/04/28 02:36:57;;;;;;;;;;;;;;;15.63;86.06;99818.19;5090893;28;20229;-55
2023/04/28 02:39:25;;;;;;;;;;;;;;;15.69;86.39;99814.28;5091280;28;19916;-56
2023/04/28 02:41:51;;;;;;;;;;;;;;;15.73;85.45;99811.34;5088482;28;20054;-55
2023/04/28 02:44:16;;;;;;;;;;;;;;;15.77;85.83;99806.69;5090466;28;19950;-55
2023/04/28 02:46:41;;;;;;;;;;;;;;;15.69;85.28;99804.44;5089872;28;20050;-56
2023/04/28 02:49:07;;;;;;;;;;;;;;;15.74;85.58;99805.06;5090765;28;19923;-55
2023/04/28 02:51:32;;;;;;;;;;;;;;;15.86;84.38;99805.28;5090531;28;20669;-55
2023/04/28 02:53:57;;;;;;;;;;;;;;;15.89;84.87;99805.09;5109231;28;19922;-55
2023/04/28 02:56:22;;;;;;;;;;;;;;;15.91;84.91;99804.09;5093333;28;19927;-55
2023/04/28 02:58:48;;;;;;;;;;;;;;;15.94;84.38;99798.53;5087972;28;19963;-56
2023/04/28 03:01:13;;;;;;;;;;;;;;;15.88;85.44;99798.88;5089467;28;20370;-56
2023/04/28 03:03:38;;;;;;;;;;;;;;;15.89;85.25;99799.75;5088780;28;19989;-56
2023/04/28 03:06:04;;;;;;;;;;;;;;;15.88;85.57;99787.31;5085248;28;20368;-56
2023/04/28 03:08:29;;;;;;;;;;;;;;;15.91;84.75;99776.38;5090046;28;19919;-55
2023/04/28 03:10:54;;;;;;;;;;;;;;;15.92;85.40;99788.84;5089254;28;19931;-55
2023/04/28 03:13:20;;;;;;;;;;;;;;;15.89;85.35;99789.00;5090202;28;19920;-55
2023/04/28 03:15:45;;;;;;;;;;;;;;;15.93;86.03;99790.59;5090250;28;19922;-55
2023/04/28 03:18:11;;;;;;;;;;;;;;;15.98;85.38;99786.66;5088917;28;19922;-55
2023/04/28 03:20:36;;;;;;;;;;;;;;;15.94;86.07;99782.44;5090057;28;19947;-55
2023/04/28 03:23:01;;;;;;;;;;;;;;;15.97;85.87;99776.91;5090049;28;19916;-56
2023/04/28 03:25:26;;;;;;;;;;;;;;;15.81;87.60;99770.69;5089253;28;20632;-55
2023/04/28 03:27:52;;;;;;;;;;;;;;;15.76;87.09;99762.06;5089685;28;19924;-55
2023/04/28 03:30:17;;;;;;;;;;;;;;;15.86;86.33;99762.38;5088888;28;20417;-55
2023/04/28 03:32:42;;;;;;;;;;;;;;;15.91;86.11;99752.25;5087845;28;20447;-55
2023/04/28 03:35:08;;;;;;;;;;;;;;;15.95;85.91;99757.34;5087669;28;19915;-55
2023/04/28 03:37:33;;;;;;;;;;;;;;;16.00;85.77;99760.63;5087684;28;20050;-55
2023/04/28 03:39:58;;;;;;;;;;;;;;;16.00;86.54;99762.44;5075222;28;19920;-55
2023/04/28 03:42:23;;;;;;;;;;;;;;;15.97;86.49;99750.06;5082541;28;20389;-55
2023/04/28 03:44:49;;;;;;;;;;;;;;;16.00;87.15;99749.00;5088403;28;20018;-55
2023/04/28 03:47:14;;;;;;;;;;;;;;;15.99;86.95;99741.94;5088518;28;20026;-55
2023/04/28 03:49:39;;;;;;;;;;;;;;;15.97;87.13;99743.84;5087226;28;20018;-55
2023/04/28 03:52:05;;;;;;;;;;;;;;;15.93;88.86;99736.94;5084837;28;19920;-55
2023/04/28 03:54:30;;;;;;;;;;;;;;;15.91;89.22;99739.72;5088521;28;19967;-55
2023/04/28 03:56:56;;;;;;;;;;;;;;;15.88;88.89;99729.13;5084039;28;19924;-55
2023/04/28 03:59:21;;;;;;;;;;;;;;;15.81;89.04;99728.63;5087149;28;19920;-55
2023/04/28 04:01:47;;;;;;;;;;;;;;;15.67;90.23;99723.22;5087588;28;19973;-55
2023/04/28 04:04:12;;;;;;;;;;;;;;;15.68;91.19;99719.56;5075246;28;20387;-55
2023/04/28 04:06:37;;;;;;;;;;;;;;;15.66;91.54;99724.19;5086804;28;19986;-55
2023/04/28 04:09:02;;;;;;;;;;;;;;;15.74;90.90;99729.97;5086751;28;19965;-56
2023/04/28 04:11:28;;;;;;;;;;;;;;;15.73;91.44;99730.91;5088263;28;19912;-56
2023/04/28 04:13:53;;;;;;;;;;;;;;;15.73;91.81;99738.94;5088216;28;20607;-56
2023/04/28 04:16:18;;;;;;;;;;;;;;;15.64;92.74;99744.84;5088140;28;19916;-56
2023/04/28 04:18:43;;;;;;;;;;;;;;;15.67;93.51;99738.44;5086891;28;19927;-55
2023/04/28 04:21:09;;;;;;;;;;;;;;;15.64;94.33;99736.81;5070809;28;19921;-56
2023/04/28 04:23:34;;;;;;;;;;;;;;;15.62;94.06;99732.47;5083248;28;19920;-56
2023/04/28 04:25:59;;;;;;;;;;;;;;;15.64;94.30;99725.22;5086754;28;20300;-56
2023/04/28 04:28:25;;;;;;;;;;;;;;;15.64;95.44;99726.09;5081868;28;20414;-56
2023/04/28 04:30:50;;;;;;;;;;;;;;;15.65;94.95;99722.44;5080272;28;20354;-56
2023/04/28 04:33:15;;;;;;;;;;;;;;;15.57;96.15;99724.69;5090529;28;19923;-56
2023/04/28 04:35:40;;;;;;;;;;;;;;;15.63;96.24;99723.50;5087421;28;19916;-56
2023/04/28 04:38:06;;;;;;;;;;;;;;;15.64;96.14;99715.34;5087126;28;19916;-56
2023/04/28 04:40:31;;;;;;;;;;;;;;;15.64;95.67;99719.84;5085003;28;19920;-56
2023/04/28 04:42:56;;;;;;;;;;;;;;;15.69;96.59;99724.00;5084788;28;20744;-56
2023/04/28 04:45:22;;;;;;;;;;;;;;;15.73;96.38;99736.25;5084904;28;19927;-56
2023/04/28 04:47:47;;;;;;;;;;;;;;;15.75;95.84;99734.34;5084790;28;19916;-56
2023/04/28 04:50:12;;;;;;;;;;;;;;;15.79;95.92;99730.56;5085486;28;19916;-56
2023/04/28 04:52:38;;;;;;;;;;;;;;;15.78;96.09;99731.50;5086375;28;19916;-56
2023/04/28 04:55:03;;;;;;;;;;;;;;;15.81;95.98;99731.31;5080711;28;19916;-56
2023/04/28 04:57:29;;;;;;;;;;;;;;;15.80;96.66;99734.97;5086939;28;19922;-56
2023/04/28 04:59:54;;;;;;;;;;;;;;;15.78;96.43;99736.84;5085464;28;19931;-56
2023/04/28 05:02:19;;;;;;;;;;;;;;;15.80;96.41;99736.75;5090271;28;19924;-56
2023/04/28 05:04:44;;;;;;;;;;;;;;;15.77;97.05;99731.59;5101562;28;20093;-56
2023/04/28 05:07:10;;;;;;;;;;;;;;;15.76;97.07;99733.41;5086008;28;19942;-56
2023/04/28 05:09:35;;;;;;;;;;;;;;;15.76;97.25;99736.06;5085797;28;20238;-56
2023/04/28 05:12:00;;;;;;;;;;;;;;;15.79;96.95;99735.94;5086446;28;19962;-56
2023/04/28 05:14:25;;;;;;;;;;;;;;;15.75;97.87;99745.09;5083011;28;19920;-56
2023/04/28 05:16:51;;;;;;;;;;;;;;;15.78;97.17;99739.53;5069973;28;20292;-56
2023/04/28 05:19:16;;;;;;;;;;;;;;;15.79;97.60;99735.06;5071264;28;19924;-56
2023/04/28 05:21:41;;;;;;;;;;;;;;;15.81;98.44;99727.78;5086140;28;19930;-56
2023/04/28 05:24:07;;;;;;;;;;;;;;;15.84;98.13;99732.97;5086859;28;20338;-56
2023/04/28 05:26:32;;;;;;;;;;;;;;;15.84;98.65;99727.59;5086603;28;19916;-55
2023/04/28 05:28:57;;;;;;;;;;;;;;;15.88;98.43;99728.28;5085894;28;19959;-56
2023/04/28 05:31:23;;;;;;;;;;;;;;;15.87;98.89;99719.38;5086849;28;20007;-56
2023/04/28 05:33:48;;;;;;;;;;;;;;;15.85;98.67;99723.94;5087391;28;19916;-56
2023/04/28 05:36:15;;;;;;;;;;;;;;;15.85;99.25;99720.44;5086202;28;20027;-56
2023/04/28 05:38:41;;;;;;;;;;;;;;;15.87;100.00;99715.81;5087366;28;20761;-56
2023/04/28 05:41:06;;;;;;;;;;;;;;;15.91;100.00;99714.69;5087246;28;20053;-56
2023/04/28 05:43:31;;;;;;;;;;;;;;;15.90;100.00;99710.28;5086961;28;20493;-56
2023/04/28 05:45:56;;;;;;;;;;;;;;;15.94;100.00;99711.81;5087272;28;19939;-56
2023/04/28 05:48:22;;;;;;;;;;;;;;;15.85;100.00;99702.50;5086034;28;19919;-56
2023/04/28 05:50:47;;;;;;;;;;;;;;;15.82;100.00;99706.25;5068456;28;20260;-56
2023/04/28 05:53:12;;;;;;;;;;;;;;;15.79;100.00;99709.09;5085435;28;20006;-55
2023/04/28 05:55:38;;;;;;;;;;;;;;;15.79;100.00;99702.88;5085652;28;19919;-56
2023/04/28 05:58:03;;;;;;;;;;;;;;;15.73;100.00;99697.88;5086140;28;20391;-56
2023/04/28 06:00:28;;;;;;;;;;;;;;;15.74;100.00;99697.78;5085189;28;19924;-56
2023/04/28 06:02:54;;;;;;;;;;;;;;;15.86;100.00;99700.69;5087122;28;19969;-56
2023/04/28 06:05:19;;;;;;;;;;;;;;;15.89;100.00;99703.19;5086287;28;19923;-56
2023/04/28 06:07:45;;;;;;;;;;;;;;;15.88;100.00;99704.16;5087565;28;19958;-55
2023/04/28 06:10:10;;;;;;;;;;;;;;;15.92;100.00;99703.00;5086652;28;20010;-55
2023/04/28 06:12:36;;;;;;;;;;;;;;;15.92;100.00;99684.22;5084768;28;19935;-56
2023/04/28 06:15:01;;;;;;;;;;;;;;;15.99;100.00;99693.63;5089009;28;19924;-56
2023/04/28 06:17:26;;;;;;;;;;;;;;;15.95;100.00;99687.59;5070134;28;19962;-55
2023/04/28 06:19:53;;;;;;;;;;;;;;;16.05;100.00;99687.91;5086475;28;19942;-55
2023/04/28 06:22:18;;;;;;;;;;;;;;;16.03;100.00;99689.84;5091526;28;19928;-55
2023/04/28 06:24:44;;;;;;;;;;;;;;;16.15;100.00;99694.44;5091357;28;20383;-55
2023/04/28 06:27:09;;;;;;;;;;;;;;;16.25;100.00;99701.84;5089603;28;19916;-56
2023/04/28 06:29:34;;;;;;;;;;;;;;;16.27;100.00;99704.44;5090934;28;19920;-56
2023/04/28 06:32:00;;;;;;;;;;;;;;;16.32;100.00;99696.97;5077074;28;20021;-56
2023/04/28 06:34:29;;;;;;;;;;;;;;;16.31;100.00;99704.16;5090719;28;19926;-55
2023/04/28 06:36:55;;;;;;;;;;;;;;;16.35;100.00;99696.78;5088740;28;19920;-55
2023/04/28 06:39:20;;;;;;;;;;;;;;;16.40;100.00;99705.41;5094755;28;20673;-55
2023/04/28 06:41:46;;;;;;;;;;;;;;;16.39;100.00;99698.34;5096014;28;20378;-55
2023/04/28 06:44:12;;;;;;;;;;;;;;;16.39;100.00;99703.72;5090796;28;19924;-55
2023/04/28 06:46:37;;;;;;;;;;;;;;;16.42;100.00;99698.16;5080931;28;19930;-56
2023/04/28 06:49:02;;;;;;;;;;;;;;;16.47;100.00;99701.44;5090338;28;20425;-55
2023/04/28 06:51:27;;;;;;;;;;;;;;;16.51;100.00;99705.66;5089955;28;19919;-56
2023/04/28 06:53:53;;;;;;;;;;;;;;;16.55;100.00;99704.53;5088483;28;19922;-55
2023/04/28 06:56:18;;;;;;;;;;;;;;;16.54;100.00;99714.38;5089401;28;20279;-55
2023/04/28 06:58:44;;;;;;;;;;;;;;;16.56;100.00;99719.66;5089270;28;20391;-56
2023/04/28 07:01:09;;;;;;;;;;;;;;;16.46;100.00;99727.41;5090296;28;19924;-55
2023/04/28 07:03:34;;;;;;;;;;;;;;;16.48;100.00;99724.63;5091001;28;19963;-55
2023/04/28 07:06:00;;;;;;;;;;;;;;;16.47;100.00;99722.94;5090931;28;20122;-55
2023/04/28 07:08:25;;;;;;;;;;;;;;;16.47;100.00;99729.16;5090660;28;20344;-55
2023/04/28 07:10:51;;;;;;;;;;;;;;;16.52;100.00;99743.16;5089763;28;19958;-55
2023/04/28 07:13:16;;;;;;;;;;;;;;;16.55;100.00;99736.75;5088560;28;20547;-56
2023/04/28 07:15:41;;;;;;;;;;;;;;;16.56;100.00;99741.13;5089158;28;19942;-55
2023/04/28 07:18:06;;;;;;;;;;;;;;;16.54;100.00;99740.41;5088990;28;19912;-55
2023/04/28 07:20:32;;;;;;;;;;;;;;;16.55;100.00;99745.66;5089177;28;19928;-55
2023/04/28 07:22:57;;;;;;;;;;;;;;;16.58;100.00;99737.41;5090463;28;19920;-55
2023/04/28 07:25:22;;;;;;;;;;;;;;;16.64;100.00;99741.53;5089893;28;20371;-55
2023/04/28 07:27:47;;;;;;;;;;;;;;;16.57;100.00;99745.56;5090276;28;19920;-55
2023/04/28 07:30:13;;;;;;;;;;;;;;;16.63;100.00;99745.19;5087308;28;19920;-55
2023/04/28 07:32:38;;;;;;;;;;;;;;;16.61;100.00;99752.47;5088966;28;19916;-55
2023/04/28 07:35:04;;;;;;;;;;;;;;;16.64;100.00;99752.28;5088718;28;19916;-55
2023/04/28 07:37:29;;;;;;;;;;;;;;;16.71;100.00;99750.94;5088971;28;20449;-55
2023/04/28 07:39:55;;;;;;;;;;;;;;;16.60;100.00;99748.94;5088253;28;19926;-56
2023/04/28 07:42:20;;;;;;;;;;;;;;;16.62;100.00;99755.06;5088713;28;19931;-55
2023/04/28 07:44:46;;;;;;;;;;;;;;;16.69;100.00;99756.41;5088805;28;19916;-55
2023/04/28 07:47:11;;;;;;;;;;;;;;;16.75;100.00;99739.91;5089536;28;19916;-55
2023/04/28 07:49:36;;;;;;;;;;;;;;;16.76;100.00;99757.78;5088959;28;20061;-55
2023/04/28 07:52:01;;;;;;;;;;;;;;;16.83;100.00;99753.75;5089837;28;20382;-55
2023/04/28 07:54:27;;;;;;;;;;;;;;;16.88;100.00;99761.53;5087341;28;19920;-55
2023/04/28 07:56:52;;;;;;;;;;;;;;;16.89;100.00;99763.25;5089535;28;19916;-55
2023/04/28 07:59:17;;;;;;;;;;;;;;;16.95;100.00;99763.72;5089495;28;19961;-55
2023/04/28 08:01:43;;;;;;;;;;;;;;;16.97;100.00;99767.19;5087221;28;20296;-55
2023/04/28 08:04:08;;;;;;;;;;;;;;;17.11;100.00;99769.00;5089339;28;19962;-55
2023/04/28 08:06:35;;;;;;;;;;;;;;;17.09;100.00;99768.22;5089480;28;19923;-56
2023/04/28 08:09:01;;;;;;;;;;;;;;;17.19;100.00;99776.56;5088984;28;19916;-55
2023/04/28 08:11:26;;;;;;;;;;;;;;;17.20;100.00;99773.78;5087583;28;19920;-55
2023/04/28 08:13:51;;;;;;;;;;;;;;;17.29;100.00;99786.66;5091131;28;19919;-55
2023/04/28 08:16:18;;;;;;;;;;;;;;;17.32;100.00;99785.59;5087305;28;20033;-55
2023/04/28 08:18:44;;;;;;;;;;;;;;;17.45;100.00;99790.13;5087981;28;19916;-55
2023/04/28 08:21:09;;;;;;;;;;;;;;;17.52;100.00;99780.72;5087578;28;20755;-55
2023/04/28 08:23:35;;;;;;;;;;;;;;;17.52;100.00;99786.09;5087022;28;20000;-55
2023/04/28 08:26:00;;;;;;;;;;;;;;;17.60;100.00;99799.03;5088404;28;19959;-56
2023/04/28 08:28:26;;;;;;;;;;;;;;;17.59;100.00;99798.19;5088839;28;19962;-56
2023/04/28 08:30:53;;;;;;;;;;;;;;;17.70;100.00;99803.72;5087365;28;20021;-56
2023/04/28 08:33:18;;;;;;;;;;;;;;;17.79;100.00;99800.41;5087877;28;19916;-56
2023/04/28 08:35:43;;;;;;;;;;;;;;;17.85;100.00;99801.84;5088376;28;19920;-56
2023/04/28 08:38:12;;;;;;;;;;;;;;;17.83;100.00;99803.78;5085695;28;19927;-55
2023/04/28 08:40:38;;;;;;;;;;;;;;;17.89;100.00;99801.53;5098882;28;19916;-55
2023/04/28 08:43:03;;;;;;;;;;;;;;;17.85;100.00;99805.41;5096635;28;20386;-55
2023/04/28 08:45:29;;;;;;;;;;;;;;;17.96;100.00;99808.25;5088173;28;19923;-55
2023/04/28 08:47:55;;;;;;;;;;;;;;;17.98;100.00;99806.34;5088445;28;20364;-55
2023/04/28 08:50:23;;;;;;;;;;;;;;;17.97;100.00;99807.28;5086830;28;20104;-55
2023/04/28 08:52:51;;;;;;;;;;;;;;;18.04;100.00;99805.91;5087437;28;19916;-55
2023/04/28 08:55:17;;;;;;;;;;;;;;;18.24;100.00;99813.53;5086461;28;20287;-55
2023/04/28 08:57:43;;;;;;;;;;;;;;;18.26;100.00;99811.63;5085494;28;19920;-55
2023/04/28 09:00:09;;;;;;;;;;;;;;;18.62;100.00;99802.03;5088250;28;19916;-55
2023/04/28 09:02:36;;;;;;;;;;;;;;;18.78;100.00;99802.72;5087907;28;20291;-55
2023/04/28 09:05:02;;;;;;;;;;;;;;;18.89;100.00;99808.22;5085989;28;19935;-54
2023/04/28 09:07:27;;;;;;;;;;;;;;;19.01;100.00;99813.59;5068675;28;20388;-54
2023/04/28 09:10:12;;;;;;;;;;;;;;;19.03;100.00;99810.78;5090111;28;20046;-54
2023/04/28 09:12:37;;;;;;;;;;;;;;;18.99;100.00;99815.56;5087386;28;19964;-55
2023/04/28 09:15:08;;;;;;;;;;;;;;;18.82;100.00;99823.06;5086264;28;19922;-55
2023/04/28 09:17:45;;;;;;;;;;;;;;;18.75;100.00;99824.44;5086001;28;19935;-55
2023/04/28 09:20:27;;;;;;;;;;;;;;;18.90;100.00;99818.00;5086487;28;19916;-55
2023/04/28 09:22:53;;;;;;;;;;;;;;;19.03;100.00;99813.47;5086848;28;19942;-55
2023/04/28 09:25:20;;;;;;;;;;;;;;;18.90;100.00;99807.22;5085581;28;20407;-55
2023/04/28 09:27:45;;;;;;;;;;;;;;;19.01;100.00;99815.44;5087591;28;19916;-55
2023/04/28 09:30:11;;;;;;;;;;;;;;;18.92;100.00;99810.69;5077713;28;19931;-55
2023/04/28 09:32:36;;;;;;;;;;;;;;;18.90;100.00;99807.22;5086389;28;20022;-55
2023/04/28 09:35:03;;;;;;;;;;;;;;;19.06;100.00;99816.00;5086651;28;19919;-55
2023/04/28 09:37:30;;;;;;;;;;;;;;;18.92;100.00;99816.94;5086377;28;19919;-55
2023/04/28 09:39:55;;;;;;;;;;;;;;;18.91;100.00;99817.91;5085617;28;19919;-56
2023/04/28 09:42:36;;;;;;;;;;;;;;;19.15;100.00;99813.50;5086464;28;20797;-56
2023/04/28 09:45:02;;;;;;;;;;;;;;;19.31;100.00;99818.69;5086229;28;19920;-56
2023/04/28 09:47:28;;;;;;;;;;;;;;;19.39;100.00;99821.69;5085542;28;19966;-56
2023/04/28 09:49:58;;;;;;;;;;;;;;;19.60;100.00;99818.31;5090557;28;19916;-56
2023/04/28 09:52:24;;;;;;;;;;;;;;;20.02;100.00;99825.09;5090464;28;20007;-56
2023/04/28 09:54:50;;;;;;;;;;;;;;;20.00;99.84;99816.25;5090400;28;20019;-56
2023/04/28 09:57:16;;;;;;;;;;;;;;;20.01;99.38;99814.44;5090863;28;19916;-56
2023/04/28 09:59:43;;;;;;;;;;;;;;;20.05;98.26;99805.97;5090686;28;19943;-56
2023/04/28 10:02:08;;;;;;;;;;;;;;;20.04;98.59;99820.47;5090625;28;20449;-56
2023/04/28 10:04:34;;;;;;;;;;;;;;;20.03;97.83;99809.78;5091577;28;19920;-56
2023/04/28 10:07:00;;;;;;;;;;;;;;;19.87;96.99;99823.53;5090298;28;19920;-56
2023/04/28 10:09:27;;;;;;;;;;;;;;;19.88;98.30;99809.09;5090638;28;19920;-56
2023/04/28 10:11:53;;;;;;;;;;;;;;;20.00;98.43;99815.41;5091013;28;20383;-56
2023/04/28 10:14:18;;;;;;;;;;;;;;;19.92;96.37;99815.13;5089443;28;20011;-57
2023/04/28 10:16:44;;;;;;;;;;;;;;;20.21;96.57;99811.13;5090067;28;19963;-57
2023/04/28 10:19:09;;;;;;;;;;;;;;;20.14;95.16;99816.09;5089843;28;19920;-56
2023/04/28 10:21:41;;;;;;;;;;;;;;;20.23;94.43;99818.13;5072666;28;19935;-57
2023/04/28 10:24:09;;;;;;;;;;;;;;;20.27;94.82;99807.97;5090581;28;19917;-57
2023/04/28 10:26:52;;;;;;;;;;;;;;;20.51;93.65;99809.66;5090154;28;20355;-56
2023/04/28 10:29:22;;;;;;;;;;;;;;;20.49;92.82;99808.91;5089353;28;19916;-56
2023/04/28 10:32:06;;;;;;;;;;;;;;;20.63;91.87;99806.03;5090992;28;19923;-56
2023/04/28 10:34:31;;;;;;;;;;;;;;;20.77;90.46;99810.38;5089917;28;19935;-57
2023/04/28 10:36:58;;;;;;;;;;;;;;;20.70;89.45;99804.59;5089867;28;19916;-55
2023/04/28 10:39:23;;;;;;;;;;;;;;;20.58;90.20;99802.81;5088961;28;20036;-56
2023/04/28 10:41:48;;;;;;;;;;;;;;;20.53;90.53;99805.00;5092421;28;20322;-56
2023/04/28 10:44:29;;;;;;;;;;;;;;;20.78;91.76;99807.56;5091702;28;19966;-56
2023/04/28 10:47:09;;;;;;;;;;;;;;;20.83;89.72;99801.78;5089925;28;19924;-56
2023/04/28 10:49:53;;;;;;;;;;;;;;;21.10;89.70;99806.91;5088924;28;19912;-57
2023/04/28 10:52:41;;;;;;;;;;;;;;;21.43;88.18;99796.94;5069971;28;20354;-56
2023/04/28 10:55:25;;;;;;;;;;;;;;;21.69;86.91;99800.28;5069616;28;20455;-57
2023/04/28 10:58:08;;;;;;;;;;;;;;;21.74;82.88;99793.50;5087579;28;19927;-55
2023/04/28 11:00:34;;;;;;;;;;;;;;;21.69;83.94;99789.44;5089542;28;19985;-56
2023/04/28 11:02:59;;;;;;;;;;;;;;;21.86;84.24;99783.53;5088972;28;20478;-55
2023/04/28 11:05:27;;;;;;;;;;;;;;;22.00;81.28;99788.66;5089357;28;19916;-55
2023/04/28 11:08:11;;;;;;;;;;;;;;;22.27;81.96;99788.22;5089483;28;19919;-55
2023/04/28 11:10:55;;;;;;;;;;;;;;;22.46;81.44;99788.38;5073313;28;20458;-56
2023/04/28 11:13:26;;;;;;;;;;;;;;;22.72;78.58;99774.34;5069364;28;19917;-56
2023/04/28 11:16:01;;;;;;;;;;;;;;;22.23;78.32;99784.03;5068925;28;19928;-56
2023/04/28 11:18:27;;;;;;;;;;;;;;;22.13;80.42;99773.09;5074314;28;19959;-56
2023/04/28 11:20:56;;;;;;;;;;;;;;;22.17;79.48;99766.47;5088581;28;20675;-56
2023/04/28 11:23:23;;;;;;;;;;;;;;;22.94;79.61;99755.22;5089000;28;19924;-56
2023/04/28 11:25:55;;;;;;;;;;;;;;;23.29;75.50;99753.00;5088632;28;19919;-57
2023/04/28 11:28:21;;;;;;;;;;;;;;;22.81;73.70;99754.59;5089200;28;20295;-55
2023/04/28 11:30:46;;;;;;;;;;;;;;;22.65;76.00;99759.59;5088901;28;19916;-56
2023/04/28 11:33:12;;;;;;;;;;;;;;;22.49;77.66;99753.72;5089068;28;19920;-56
2023/04/28 11:35:40;;;;;;;;;;;;;;;22.08;78.47;99764.50;5071166;28;20317;-56
2023/04/28 11:38:05;;;;;;;;;;;;;;;21.70;80.67;99764.06;5070828;28;19981;-55
2023/04/28 11:40:31;;;;;;;;;;;;;;;21.31;84.08;99757.38;5087936;28;20367;-57
2023/04/28 11:42:57;;;;;;;;;;;;;;;21.30;84.87;99749.38;5088929;28;19927;-56
2023/04/28 11:45:23;;;;;;;;;;;;;;;21.26;85.04;99770.41;5087752;28;20023;-56
2023/04/28 11:47:49;;;;;;;;;;;;;;;21.10;86.47;99763.63;5088901;28;20015;-56
2023/04/28 11:50:14;;;;;;;;;;;;;;;21.12;87.24;99750.84;5088620;28;19916;-56
2023/04/28 11:52:52;;;;;;;;;;;;;;;20.84;90.08;99753.00;5087359;28;20082;-54
2023/04/28 11:55:17;;;;;;;;;;;;;;;20.74;91.76;99759.25;5087772;28;19958;-55
2023/04/28 11:57:42;;;;;;;;;;;;;;;20.78;94.48;99758.00;5087268;28;19948;-55
2023/04/28 12:00:13;;;;;;;;;;;;;;;20.86;95.10;99756.44;5087954;28;19947;-55
2023/04/28 12:02:38;;;;;;;;;;;;;;;20.75;95.51;99753.72;5088019;28;20362;-55
2023/04/28 12:05:07;;;;;;;;;;;;;;;20.86;96.50;99751.03;5069479;28;20006;-55
2023/04/28 12:07:43;;;;;;;;;;;;;;;21.00;96.30;99741.00;5068075;28;19923;-55
2023/04/28 12:10:09;;;;;;;;;;;;;;;21.01;96.28;99740.88;5080928;28;19927;-56
2023/04/28 12:12:35;;;;;;;;;;;;;;;21.31;96.22;99745.66;5085688;28;20283;-56
2023/04/28 12:15:01;;;;;;;;;;;;;;;21.36;94.79;99749.75;5087095;28;20022;-56
2023/04/28 12:17:27;;;;;;;;;;;;;;;21.46;94.79;99744.44;5086577;28;20372;-56
2023/04/28 12:19:56;;;;;;;;;;;;;;;21.56;93.96;99751.69;5088726;28;19916;-55
2023/04/28 12:22:22;;;;;;;;;;;;;;;21.60;93.00;99752.28;5087072;28;20015;-55
2023/04/28 12:25:07;;;;;;;;;;;;;;;21.35;91.67;99752.56;5087977;28;20007;-57
2023/04/28 12:27:34;;;;;;;;;;;;;;;21.06;91.13;99762.13;5090257;28;20520;-55
2023/04/28 12:30:00;;;;;;;;;;;;;;;20.80;92.70;99756.06;5087575;28;20046;-56
2023/04/28 12:32:42;;;;;;;;;;;;;;;20.70;94.11;99764.03;5087644;28;20014;-55
2023/04/28 12:35:08;;;;;;;;;;;;;;;20.47;95.81;99764.09;5087723;28;19916;-55
2023/04/28 12:37:33;;;;;;;;;;;;;;;20.37;97.98;99763.94;5087716;28;19920;-56
2023/04/28 12:39:59;;;;;;;;;;;;;;;20.45;100.00;99761.50;5090884;28;20292;-56